カシュガル の空港の天気 - METARとTAF

カシュガル空港 ( ZWSH / KHG ) - 中国 新疆ウイグル自治区カシュガル市
飛行場実況気象(Metar)
観測時間04/22 00:00 CST (04/21 16:00 UTC)
風向・風速北北西 7m/s
視程10km以上
天気現象
少しの雲 雲底高度 1220m
全天の4割程度の雲 雲底高度 1220m
気温24℃
湿度14%
気圧1006hPa
METARZWSH 211600Z 33007MPS 290V350 9999 TS FEW040CB SCT040 24/M05 Q1006 NOSIG
過去の天気等 Google飛行場航空写真 Wunderground天気予報

過去48時間のMETAR

飛行場予報(TAF)
発表時間: 4/21 17:06 CST (4/21 09:06 UTC)
予報対象時間: 21日20時 CST ~ 22日20時 CST
風向・風速南南東 4m/s
視程8000m
少しの雲 雲底高度 1220m
21日23時 CST ~ 21日24時 CST に徐々に
風向・風速北西 4m/s
TAF ZWSH 210906Z 2112/2212 15004MPS 8000 FEW040 TX29/2209Z TN19/2200Z
BECMG 2115/2116 32004MPS